sensor_id;sensor_type;location;lat;lon;timestamp;temperature;humidity
38333;DHT22;25748;46.670;14.272;2024-03-22T00:00:34;8.90;79.30
38333;DHT22;25748;46.670;14.272;2024-03-22T00:02:59;8.80;79.20
38333;DHT22;25748;46.670;14.272;2024-03-22T00:05:25;8.90;79.40
38333;DHT22;25748;46.670;14.272;2024-03-22T00:07:51;8.80;79.20
38333;DHT22;25748;46.670;14.272;2024-03-22T00:10:16;8.80;79.20
38333;DHT22;25748;46.670;14.272;2024-03-22T00:12:42;8.80;79.20
38333;DHT22;25748;46.670;14.272;2024-03-22T00:15:08;8.80;79.30
38333;DHT22;25748;46.670;14.272;2024-03-22T00:17:33;8.80;79.00
38333;DHT22;25748;46.670;14.272;2024-03-22T00:20:00;8.80;78.80
38333;DHT22;25748;46.670;14.272;2024-03-22T00:22:25;8.80;78.80
38333;DHT22;25748;46.670;14.272;2024-03-22T00:24:51;8.70;78.70
38333;DHT22;25748;46.670;14.272;2024-03-22T00:27:17;8.70;78.60
38333;DHT22;25748;46.670;14.272;2024-03-22T00:29:42;8.70;79.10
38333;DHT22;25748;46.670;14.272;2024-03-22T00:32:09;8.70;79.20
38333;DHT22;25748;46.670;14.272;2024-03-22T00:34:35;8.70;78.80
38333;DHT22;25748;46.670;14.272;2024-03-22T00:37:01;8.70;78.80
38333;DHT22;25748;46.670;14.272;2024-03-22T00:39:26;8.70;78.80
38333;DHT22;25748;46.670;14.272;2024-03-22T00:41:52;8.70;78.70
38333;DHT22;25748;46.670;14.272;2024-03-22T00:44:17;8.70;78.80
38333;DHT22;25748;46.670;14.272;2024-03-22T00:46:43;8.70;79.00
38333;DHT22;25748;46.670;14.272;2024-03-22T00:49:09;8.80;79.10
38333;DHT22;25748;46.670;14.272;2024-03-22T00:51:34;8.70;78.90
38333;DHT22;25748;46.670;14.272;2024-03-22T00:54:00;8.70;79.00
38333;DHT22;25748;46.670;14.272;2024-03-22T00:56:26;8.80;79.10
38333;DHT22;25748;46.670;14.272;2024-03-22T00:58:51;8.70;79.00
38333;DHT22;25748;46.670;14.272;2024-03-22T01:01:17;8.70;79.00
38333;DHT22;25748;46.670;14.272;2024-03-22T01:03:43;8.80;79.20
38333;DHT22;25748;46.670;14.272;2024-03-22T01:06:08;8.80;79.20
38333;DHT22;25748;46.670;14.272;2024-03-22T01:08:34;8.80;79.20
38333;DHT22;25748;46.670;14.272;2024-03-22T01:10:59;8.70;79.00
38333;DHT22;25748;46.670;14.272;2024-03-22T01:13:25;8.80;79.20
38333;DHT22;25748;46.670;14.272;2024-03-22T01:15:52;8.80;79.20
38333;DHT22;25748;46.670;14.272;2024-03-22T01:18:18;8.80;79.20
38333;DHT22;25748;46.670;14.272;2024-03-22T01:20:43;8.70;79.00
38333;DHT22;25748;46.670;14.272;2024-03-22T01:23:09;8.70;78.90
38333;DHT22;25748;46.670;14.272;2024-03-22T01:25:35;8.70;78.80
38333;DHT22;25748;46.670;14.272;2024-03-22T01:28:01;8.70;79.00
38333;DHT22;25748;46.670;14.272;2024-03-22T01:30:29;8.70;79.00
38333;DHT22;25748;46.670;14.272;2024-03-22T01:32:55;8.70;79.00
38333;DHT22;25748;46.670;14.272;2024-03-22T01:35:21;8.70;79.00
38333;DHT22;25748;46.670;14.272;2024-03-22T01:37:47;8.70;79.10
38333;DHT22;25748;46.670;14.272;2024-03-22T01:40:13;8.70;79.00
38333;DHT22;25748;46.670;14.272;2024-03-22T01:42:39;8.70;79.00
38333;DHT22;25748;46.670;14.272;2024-03-22T01:45:05;8.70;79.00
38333;DHT22;25748;46.670;14.272;2024-03-22T01:47:31;8.70;79.00
38333;DHT22;25748;46.670;14.272;2024-03-22T01:49:57;8.70;79.00
38333;DHT22;25748;46.670;14.272;2024-03-22T01:52:23;8.70;79.00
38333;DHT22;25748;46.670;14.272;2024-03-22T01:54:49;8.70;79.00
38333;DHT22;25748;46.670;14.272;2024-03-22T01:57:15;8.70;79.00
38333;DHT22;25748;46.670;14.272;2024-03-22T01:59:41;8.70;78.70
38333;DHT22;25748;46.670;14.272;2024-03-22T02:02:07;8.70;78.90
38333;DHT22;25748;46.670;14.272;2024-03-22T02:04:33;8.60;78.80
38333;DHT22;25748;46.670;14.272;2024-03-22T02:06:58;8.70;79.00
38333;DHT22;25748;46.670;14.272;2024-03-22T02:09:25;8.60;79.30
38333;DHT22;25748;46.670;14.272;2024-03-22T02:11:51;8.60;78.80
38333;DHT22;25748;46.670;14.272;2024-03-22T02:14:16;8.60;78.70
38333;DHT22;25748;46.670;14.272;2024-03-22T02:16:43;8.60;78.80
38333;DHT22;25748;46.670;14.272;2024-03-22T02:19:10;8.60;78.70
38333;DHT22;25748;46.670;14.272;2024-03-22T02:21:36;8.60;78.60
38333;DHT22;25748;46.670;14.272;2024-03-22T02:24:02;8.60;78.40
38333;DHT22;25748;46.670;14.272;2024-03-22T02:26:27;8.60;78.50
38333;DHT22;25748;46.670;14.272;2024-03-22T02:28:53;8.50;78.50
38333;DHT22;25748;46.670;14.272;2024-03-22T02:31:19;8.50;78.30
38333;DHT22;25748;46.670;14.272;2024-03-22T02:33:45;8.60;78.60
38333;DHT22;25748;46.670;14.272;2024-03-22T02:36:11;8.50;78.40
38333;DHT22;25748;46.670;14.272;2024-03-22T02:38:37;8.50;78.20
38333;DHT22;25748;46.670;14.272;2024-03-22T02:41:02;8.50;78.30
38333;DHT22;25748;46.670;14.272;2024-03-22T02:43:28;8.50;78.30
38333;DHT22;25748;46.670;14.272;2024-03-22T02:45:54;8.50;78.10
38333;DHT22;25748;46.670;14.272;2024-03-22T02:48:19;8.40;77.90
38333;DHT22;25748;46.670;14.272;2024-03-22T02:50:45;8.40;77.80
38333;DHT22;25748;46.670;14.272;2024-03-22T02:53:11;8.40;77.80
38333;DHT22;25748;46.670;14.272;2024-03-22T02:55:38;8.30;77.40
38333;DHT22;25748;46.670;14.272;2024-03-22T02:58:04;8.30;77.40
38333;DHT22;25748;46.670;14.272;2024-03-22T03:00:31;8.20;77.20
38333;DHT22;25748;46.670;14.272;2024-03-22T03:02:56;8.20;77.00
38333;DHT22;25748;46.670;14.272;2024-03-22T03:05:22;8.10;76.30
38333;DHT22;25748;46.670;14.272;2024-03-22T03:07:49;8.00;75.90
38333;DHT22;25748;46.670;14.272;2024-03-22T03:10:16;8.00;75.90
38333;DHT22;25748;46.670;14.272;2024-03-22T03:12:42;7.90;75.90
38333;DHT22;25748;46.670;14.272;2024-03-22T03:15:08;7.80;75.00
38333;DHT22;25748;46.670;14.272;2024-03-22T03:17:33;7.70;75.00
38333;DHT22;25748;46.670;14.272;2024-03-22T03:19:59;7.60;74.90
38333;DHT22;25748;46.670;14.272;2024-03-22T03:22:25;7.60;74.80
38333;DHT22;25748;46.670;14.272;2024-03-22T03:24:50;7.50;75.00
38333;DHT22;25748;46.670;14.272;2024-03-22T03:27:16;7.40;75.50
38333;DHT22;25748;46.670;14.272;2024-03-22T03:29:42;7.40;75.70
38333;DHT22;25748;46.670;14.272;2024-03-22T03:32:07;7.40;76.00
38333;DHT22;25748;46.670;14.272;2024-03-22T03:34:33;7.40;76.10
38333;DHT22;25748;46.670;14.272;2024-03-22T03:36:59;7.40;76.30
38333;DHT22;25748;46.670;14.272;2024-03-22T03:39:27;7.40;76.40
38333;DHT22;25748;46.670;14.272;2024-03-22T03:41:54;7.40;76.50
38333;DHT22;25748;46.670;14.272;2024-03-22T03:44:20;7.40;76.70
38333;DHT22;25748;46.670;14.272;2024-03-22T03:46:46;7.40;76.80
38333;DHT22;25748;46.670;14.272;2024-03-22T03:49:11;7.40;76.80
38333;DHT22;25748;46.670;14.272;2024-03-22T03:51:37;7.40;76.80
38333;DHT22;25748;46.670;14.272;2024-03-22T03:54:02;7.30;76.80
38333;DHT22;25748;46.670;14.272;2024-03-22T03:56:28;7.30;77.00
38333;DHT22;25748;46.670;14.272;2024-03-22T03:58:54;7.30;77.10
38333;DHT22;25748;46.670;14.272;2024-03-22T04:01:19;7.30;77.20
38333;DHT22;25748;46.670;14.272;2024-03-22T04:03:45;7.30;77.30
38333;DHT22;25748;46.670;14.272;2024-03-22T04:06:11;7.30;77.50
38333;DHT22;25748;46.670;14.272;2024-03-22T04:08:36;7.30;77.60
38333;DHT22;25748;46.670;14.272;2024-03-22T04:11:02;7.30;77.70
38333;DHT22;25748;46.670;14.272;2024-03-22T04:13:28;7.40;77.90
38333;DHT22;25748;46.670;14.272;2024-03-22T04:15:54;7.40;78.00
38333;DHT22;25748;46.670;14.272;2024-03-22T04:18:23;7.40;78.00
38333;DHT22;25748;46.670;14.272;2024-03-22T04:20:56;7.40;78.20
38333;DHT22;25748;46.670;14.272;2024-03-22T04:23:23;7.40;78.20
38333;DHT22;25748;46.670;14.272;2024-03-22T04:25:56;7.40;78.40
38333;DHT22;25748;46.670;14.272;2024-03-22T04:28:22;7.40;78.50
38333;DHT22;25748;46.670;14.272;2024-03-22T04:31:01;7.40;78.60
38333;DHT22;25748;46.670;14.272;2024-03-22T04:33:27;7.40;78.70
38333;DHT22;25748;46.670;14.272;2024-03-22T04:35:54;7.40;78.70
38333;DHT22;25748;46.670;14.272;2024-03-22T04:38:20;7.40;78.80
38333;DHT22;25748;46.670;14.272;2024-03-22T04:40:45;7.40;78.90
38333;DHT22;25748;46.670;14.272;2024-03-22T04:43:11;7.40;78.90
38333;DHT22;25748;46.670;14.272;2024-03-22T04:45:37;7.50;79.00
38333;DHT22;25748;46.670;14.272;2024-03-22T04:48:04;7.50;79.00
38333;DHT22;25748;46.670;14.272;2024-03-22T04:50:30;7.50;79.00
38333;DHT22;25748;46.670;14.272;2024-03-22T04:52:55;7.50;79.10
38333;DHT22;25748;46.670;14.272;2024-03-22T04:55:21;7.50;79.10
38333;DHT22;25748;46.670;14.272;2024-03-22T04:57:47;7.50;79.10
38333;DHT22;25748;46.670;14.272;2024-03-22T05:00:13;7.50;79.10
38333;DHT22;25748;46.670;14.272;2024-03-22T05:02:39;7.50;79.00
38333;DHT22;25748;46.670;14.272;2024-03-22T05:05:05;7.50;79.00
38333;DHT22;25748;46.670;14.272;2024-03-22T05:07:31;7.50;79.00
38333;DHT22;25748;46.670;14.272;2024-03-22T05:09:57;7.50;78.80
38333;DHT22;25748;46.670;14.272;2024-03-22T05:12:22;7.40;78.70
38333;DHT22;25748;46.670;14.272;2024-03-22T05:14:48;7.40;78.70
38333;DHT22;25748;46.670;14.272;2024-03-22T05:17:13;7.40;78.80
38333;DHT22;25748;46.670;14.272;2024-03-22T05:19:39;7.40;78.70
38333;DHT22;25748;46.670;14.272;2024-03-22T05:22:05;7.40;78.50
38333;DHT22;25748;46.670;14.272;2024-03-22T05:24:31;7.40;78.60
38333;DHT22;25748;46.670;14.272;2024-03-22T05:26:58;7.30;78.20
38333;DHT22;25748;46.670;14.272;2024-03-22T05:29:23;7.40;78.20
38333;DHT22;25748;46.670;14.272;2024-03-22T05:31:50;7.30;78.30
38333;DHT22;25748;46.670;14.272;2024-03-22T05:34:17;7.30;78.20
38333;DHT22;25748;46.670;14.272;2024-03-22T05:36:43;7.30;78.50
38333;DHT22;25748;46.670;14.272;2024-03-22T05:39:09;7.30;78.40
38333;DHT22;25748;46.670;14.272;2024-03-22T05:41:38;7.30;78.50
38333;DHT22;25748;46.670;14.272;2024-03-22T05:44:04;7.30;78.50
38333;DHT22;25748;46.670;14.272;2024-03-22T05:46:30;7.30;78.50
38333;DHT22;25748;46.670;14.272;2024-03-22T05:48:57;7.30;78.60
38333;DHT22;25748;46.670;14.272;2024-03-22T05:51:24;7.30;78.60
38333;DHT22;25748;46.670;14.272;2024-03-22T05:53:50;7.30;78.60
38333;DHT22;25748;46.670;14.272;2024-03-22T05:56:15;7.40;78.70
38333;DHT22;25748;46.670;14.272;2024-03-22T05:58:41;7.40;78.60
38333;DHT22;25748;46.670;14.272;2024-03-22T06:01:07;7.40;78.60
38333;DHT22;25748;46.670;14.272;2024-03-22T06:03:32;7.40;78.50
38333;DHT22;25748;46.670;14.272;2024-03-22T06:05:59;7.40;78.60
38333;DHT22;25748;46.670;14.272;2024-03-22T06:08:28;7.40;78.40
38333;DHT22;25748;46.670;14.272;2024-03-22T06:10:55;7.40;78.40
38333;DHT22;25748;46.670;14.272;2024-03-22T06:13:23;7.40;78.40
38333;DHT22;25748;46.670;14.272;2024-03-22T06:15:49;7.40;78.50
38333;DHT22;25748;46.670;14.272;2024-03-22T06:18:15;7.40;78.30
38333;DHT22;25748;46.670;14.272;2024-03-22T06:20:41;7.40;78.60
38333;DHT22;25748;46.670;14.272;2024-03-22T06:23:10;7.40;78.20
38333;DHT22;25748;46.670;14.272;2024-03-22T06:25:36;7.50;78.30
38333;DHT22;25748;46.670;14.272;2024-03-22T06:28:02;7.40;78.00
38333;DHT22;25748;46.670;14.272;2024-03-22T06:30:27;7.40;78.10
38333;DHT22;25748;46.670;14.272;2024-03-22T06:32:53;7.40;78.00
38333;DHT22;25748;46.670;14.272;2024-03-22T06:35:20;7.50;78.10
38333;DHT22;25748;46.670;14.272;2024-03-22T06:37:46;7.50;78.10
38333;DHT22;25748;46.670;14.272;2024-03-22T06:40:12;7.50;78.10
38333;DHT22;25748;46.670;14.272;2024-03-22T06:42:37;7.50;78.10
38333;DHT22;25748;46.670;14.272;2024-03-22T06:45:03;7.50;78.00
38333;DHT22;25748;46.670;14.272;2024-03-22T06:47:29;7.50;78.00
38333;DHT22;25748;46.670;14.272;2024-03-22T06:49:55;7.50;78.10
38333;DHT22;25748;46.670;14.272;2024-03-22T06:52:20;7.60;78.40
38333;DHT22;25748;46.670;14.272;2024-03-22T06:54:46;7.60;78.50
38333;DHT22;25748;46.670;14.272;2024-03-22T06:57:12;7.60;78.60
38333;DHT22;25748;46.670;14.272;2024-03-22T06:59:38;7.70;78.60
38333;DHT22;25748;46.670;14.272;2024-03-22T07:02:04;7.70;78.70
38333;DHT22;25748;46.670;14.272;2024-03-22T07:04:29;7.80;78.80
38333;DHT22;25748;46.670;14.272;2024-03-22T07:06:55;7.80;78.80
38333;DHT22;25748;46.670;14.272;2024-03-22T07:09:21;7.90;78.90
38333;DHT22;25748;46.670;14.272;2024-03-22T07:11:46;7.90;78.10
38333;DHT22;25748;46.670;14.272;2024-03-22T07:14:12;7.90;78.10
38333;DHT22;25748;46.670;14.272;2024-03-22T07:16:38;7.90;77.50
38333;DHT22;25748;46.670;14.272;2024-03-22T07:19:04;7.90;77.30
38333;DHT22;25748;46.670;14.272;2024-03-22T07:21:30;7.90;77.10
38333;DHT22;25748;46.670;14.272;2024-03-22T07:23:56;7.90;76.80
38333;DHT22;25748;46.670;14.272;2024-03-22T07:26:22;7.90;76.80
38333;DHT22;25748;46.670;14.272;2024-03-22T07:28:47;8.00;76.70
38333;DHT22;25748;46.670;14.272;2024-03-22T07:31:13;8.00;75.90
38333;DHT22;25748;46.670;14.272;2024-03-22T07:33:39;8.00;76.50
38333;DHT22;25748;46.670;14.272;2024-03-22T07:36:05;8.00;76.50
38333;DHT22;25748;46.670;14.272;2024-03-22T07:38:32;8.00;76.50
38333;DHT22;25748;46.670;14.272;2024-03-22T07:40:57;8.00;76.40
38333;DHT22;25748;46.670;14.272;2024-03-22T07:43:23;8.10;76.70
38333;DHT22;25748;46.670;14.272;2024-03-22T07:45:49;8.10;76.90
38333;DHT22;25748;46.670;14.272;2024-03-22T07:48:15;8.20;77.00
38333;DHT22;25748;46.670;14.272;2024-03-22T07:50:41;8.20;77.00
38333;DHT22;25748;46.670;14.272;2024-03-22T07:53:06;8.20;77.00
38333;DHT22;25748;46.670;14.272;2024-03-22T07:55:32;8.30;77.00
38333;DHT22;25748;46.670;14.272;2024-03-22T07:57:58;8.40;77.40
38333;DHT22;25748;46.670;14.272;2024-03-22T08:00:24;8.40;77.40
38333;DHT22;25748;46.670;14.272;2024-03-22T08:02:51;8.50;77.70
38333;DHT22;25748;46.670;14.272;2024-03-22T08:05:17;8.60;77.80
38333;DHT22;25748;46.670;14.272;2024-03-22T08:07:42;8.70;77.90
38333;DHT22;25748;46.670;14.272;2024-03-22T08:10:09;8.80;77.60
38333;DHT22;25748;46.670;14.272;2024-03-22T08:12:35;8.90;77.50
38333;DHT22;25748;46.670;14.272;2024-03-22T08:15:01;9.00;76.90
38333;DHT22;25748;46.670;14.272;2024-03-22T08:17:27;9.10;77.00
38333;DHT22;25748;46.670;14.272;2024-03-22T08:19:53;9.20;76.80
38333;DHT22;25748;46.670;14.272;2024-03-22T08:22:18;9.30;76.60
38333;DHT22;25748;46.670;14.272;2024-03-22T08:24:44;9.30;75.90
38333;DHT22;25748;46.670;14.272;2024-03-22T08:27:10;9.40;75.80
38333;DHT22;25748;46.670;14.272;2024-03-22T08:29:35;9.50;75.60
38333;DHT22;25748;46.670;14.272;2024-03-22T08:32:01;9.50;74.80
38333;DHT22;25748;46.670;14.272;2024-03-22T08:34:30;9.50;73.80
38333;DHT22;25748;46.670;14.272;2024-03-22T08:36:55;9.60;73.80
38333;DHT22;25748;46.670;14.272;2024-03-22T08:39:21;9.60;73.30
38333;DHT22;25748;46.670;14.272;2024-03-22T08:41:47;9.70;73.20
38333;DHT22;25748;46.670;14.272;2024-03-22T08:44:13;9.70;72.90
38333;DHT22;25748;46.670;14.272;2024-03-22T08:46:41;9.80;73.00
38333;DHT22;25748;46.670;14.272;2024-03-22T08:49:07;9.90;73.20
38333;DHT22;25748;46.670;14.272;2024-03-22T08:51:32;10.00;73.40
38333;DHT22;25748;46.670;14.272;2024-03-22T08:53:59;10.10;73.50
38333;DHT22;25748;46.670;14.272;2024-03-22T08:56:26;10.30;73.30
38333;DHT22;25748;46.670;14.272;2024-03-22T08:58:51;10.50;72.70
38333;DHT22;25748;46.670;14.272;2024-03-22T09:01:17;10.70;73.00
38333;DHT22;25748;46.670;14.272;2024-03-22T09:03:42;11.00;72.50
38333;DHT22;25748;46.670;14.272;2024-03-22T09:06:12;11.20;70.80
38333;DHT22;25748;46.670;14.272;2024-03-22T09:08:37;11.50;70.70
38333;DHT22;25748;46.670;14.272;2024-03-22T09:11:03;11.70;68.80
38333;DHT22;25748;46.670;14.272;2024-03-22T09:13:29;11.90;69.50
38333;DHT22;25748;46.670;14.272;2024-03-22T09:15:58;12.20;67.80
38333;DHT22;25748;46.670;14.272;2024-03-22T09:18:25;12.40;66.40
38333;DHT22;25748;46.670;14.272;2024-03-22T09:20:50;12.60;66.30
38333;DHT22;25748;46.670;14.272;2024-03-22T09:23:16;12.90;65.60
38333;DHT22;25748;46.670;14.272;2024-03-22T09:25:41;13.20;65.70
38333;DHT22;25748;46.670;14.272;2024-03-22T09:28:07;13.50;64.30
38333;DHT22;25748;46.670;14.272;2024-03-22T09:30:38;13.70;63.30
38333;DHT22;25748;46.670;14.272;2024-03-22T09:33:04;14.00;60.60
38333;DHT22;25748;46.670;14.272;2024-03-22T09:35:30;14.00;59.10
38333;DHT22;25748;46.670;14.272;2024-03-22T09:37:56;14.00;58.50
38333;DHT22;25748;46.670;14.272;2024-03-22T09:40:22;14.10;58.80
38333;DHT22;25748;46.670;14.272;2024-03-22T09:42:49;14.20;58.40
38333;DHT22;25748;46.670;14.272;2024-03-22T09:45:15;14.20;58.10
38333;DHT22;25748;46.670;14.272;2024-03-22T09:47:44;14.30;58.00
38333;DHT22;25748;46.670;14.272;2024-03-22T09:50:10;14.40;58.30
38333;DHT22;25748;46.670;14.272;2024-03-22T09:52:38;14.50;57.70
38333;DHT22;25748;46.670;14.272;2024-03-22T09:55:05;14.60;57.90
38333;DHT22;25748;46.670;14.272;2024-03-22T09:57:31;14.70;57.00
38333;DHT22;25748;46.670;14.272;2024-03-22T09:59:59;14.80;56.90
38333;DHT22;25748;46.670;14.272;2024-03-22T10:02:25;15.00;56.90
38333;DHT22;25748;46.670;14.272;2024-03-22T10:04:51;15.10;56.50
38333;DHT22;25748;46.670;14.272;2024-03-22T10:07:17;15.40;57.50
38333;DHT22;25748;46.670;14.272;2024-03-22T10:09:43;15.60;56.30
38333;DHT22;25748;46.670;14.272;2024-03-22T10:12:09;15.80;56.20
38333;DHT22;25748;46.670;14.272;2024-03-22T10:14:35;16.00;56.30
38333;DHT22;25748;46.670;14.272;2024-03-22T10:17:02;16.30;56.80
38333;DHT22;25748;46.670;14.272;2024-03-22T10:19:28;16.40;55.60
38333;DHT22;25748;46.670;14.272;2024-03-22T10:22:04;16.50;55.10
38333;DHT22;25748;46.670;14.272;2024-03-22T10:24:31;16.30;54.10
38333;DHT22;25748;46.670;14.272;2024-03-22T10:26:58;16.40;55.90
38333;DHT22;25748;46.670;14.272;2024-03-22T10:29:24;16.50;55.20
38333;DHT22;25748;46.670;14.272;2024-03-22T10:31:54;16.60;55.30
38333;DHT22;25748;46.670;14.272;2024-03-22T10:34:24;16.80;55.00
38333;DHT22;25748;46.670;14.272;2024-03-22T10:36:50;16.90;54.40
38333;DHT22;25748;46.670;14.272;2024-03-22T10:39:19;17.00;54.20
38333;DHT22;25748;46.670;14.272;2024-03-22T10:41:48;17.10;55.00
38333;DHT22;25748;46.670;14.272;2024-03-22T10:44:17;17.10;54.40
38333;DHT22;25748;46.670;14.272;2024-03-22T10:46:47;17.20;54.80
38333;DHT22;25748;46.670;14.272;2024-03-22T10:49:16;17.20;54.00
38333;DHT22;25748;46.670;14.272;2024-03-22T10:51:44;17.10;53.60
38333;DHT22;25748;46.670;14.272;2024-03-22T10:54:18;17.20;54.20
38333;DHT22;25748;46.670;14.272;2024-03-22T10:56:45;17.20;53.50
38333;DHT22;25748;46.670;14.272;2024-03-22T10:59:22;17.20;53.30
38333;DHT22;25748;46.670;14.272;2024-03-22T11:01:49;17.00;53.20
38333;DHT22;25748;46.670;14.272;2024-03-22T11:04:20;17.10;54.10
38333;DHT22;25748;46.670;14.272;2024-03-22T11:06:51;17.10;54.50
38333;DHT22;25748;46.670;14.272;2024-03-22T11:09:25;17.20;54.00
38333;DHT22;25748;46.670;14.272;2024-03-22T11:11:55;17.40;53.80
38333;DHT22;25748;46.670;14.272;2024-03-22T11:14:22;17.50;53.60
38333;DHT22;25748;46.670;14.272;2024-03-22T11:16:50;17.60;53.60
38333;DHT22;25748;46.670;14.272;2024-03-22T11:19:16;17.70;53.20
38333;DHT22;25748;46.670;14.272;2024-03-22T11:21:41;17.80;52.30
38333;DHT22;25748;46.670;14.272;2024-03-22T11:24:07;17.90;52.50
38333;DHT22;25748;46.670;14.272;2024-03-22T11:26:33;18.00;52.50
38333;DHT22;25748;46.670;14.272;2024-03-22T11:28:59;18.20;51.70
38333;DHT22;25748;46.670;14.272;2024-03-22T11:31:28;18.40;51.30
38333;DHT22;25748;46.670;14.272;2024-03-22T11:33:55;18.40;51.00
38333;DHT22;25748;46.670;14.272;2024-03-22T11:36:22;18.60;50.90
38333;DHT22;25748;46.670;14.272;2024-03-22T11:38:48;18.70;49.80
38333;DHT22;25748;46.670;14.272;2024-03-22T11:41:17;18.80;50.10
38333;DHT22;25748;46.670;14.272;2024-03-22T11:43:45;18.80;49.80
38333;DHT22;25748;46.670;14.272;2024-03-22T11:46:11;19.00;49.60
38333;DHT22;25748;46.670;14.272;2024-03-22T11:48:43;19.10;48.70
38333;DHT22;25748;46.670;14.272;2024-03-22T11:51:09;19.10;48.30
38333;DHT22;25748;46.670;14.272;2024-03-22T11:53:35;19.20;47.30
38333;DHT22;25748;46.670;14.272;2024-03-22T11:56:03;19.10;47.60
38333;DHT22;25748;46.670;14.272;2024-03-22T11:58:29;19.10;47.90
38333;DHT22;25748;46.670;14.272;2024-03-22T12:00:56;19.20;48.50
38333;DHT22;25748;46.670;14.272;2024-03-22T12:03:23;19.40;47.40
38333;DHT22;25748;46.670;14.272;2024-03-22T12:05:48;19.50;48.20
38333;DHT22;25748;46.670;14.272;2024-03-22T12:08:17;19.60;47.50
38333;DHT22;25748;46.670;14.272;2024-03-22T12:10:43;19.80;46.70
38333;DHT22;25748;46.670;14.272;2024-03-22T12:13:09;19.80;46.60
38333;DHT22;25748;46.670;14.272;2024-03-22T12:15:35;20.00;46.50
38333;DHT22;25748;46.670;14.272;2024-03-22T12:18:01;20.00;47.30
38333;DHT22;25748;46.670;14.272;2024-03-22T12:20:26;20.10;47.40
38333;DHT22;25748;46.670;14.272;2024-03-22T12:22:52;20.20;47.30
38333;DHT22;25748;46.670;14.272;2024-03-22T12:25:18;20.40;46.00
38333;DHT22;25748;46.670;14.272;2024-03-22T12:27:46;20.40;45.50
38333;DHT22;25748;46.670;14.272;2024-03-22T12:30:12;20.40;45.50
38333;DHT22;25748;46.670;14.272;2024-03-22T12:32:37;20.40;46.50
38333;DHT22;25748;46.670;14.272;2024-03-22T12:35:03;20.50;46.80
38333;DHT22;25748;46.670;14.272;2024-03-22T12:37:29;20.60;46.30
38333;DHT22;25748;46.670;14.272;2024-03-22T12:39:55;20.60;46.30
38333;DHT22;25748;46.670;14.272;2024-03-22T12:42:21;20.60;45.70
38333;DHT22;25748;46.670;14.272;2024-03-22T12:44:47;20.60;47.20
38333;DHT22;25748;46.670;14.272;2024-03-22T12:47:12;20.70;47.20
38333;DHT22;25748;46.670;14.272;2024-03-22T12:49:38;20.70;46.50
38333;DHT22;25748;46.670;14.272;2024-03-22T12:52:04;20.70;45.90
38333;DHT22;25748;46.670;14.272;2024-03-22T12:54:29;20.80;46.80
38333;DHT22;25748;46.670;14.272;2024-03-22T12:56:55;20.70;45.50
38333;DHT22;25748;46.670;14.272;2024-03-22T12:59:21;20.80;45.10
38333;DHT22;25748;46.670;14.272;2024-03-22T13:01:47;20.80;45.40
38333;DHT22;25748;46.670;14.272;2024-03-22T13:04:13;20.70;45.90
38333;DHT22;25748;46.670;14.272;2024-03-22T13:06:38;20.70;45.90
38333;DHT22;25748;46.670;14.272;2024-03-22T13:09:04;20.70;45.90
38333;DHT22;25748;46.670;14.272;2024-03-22T13:11:31;20.70;46.30
38333;DHT22;25748;46.670;14.272;2024-03-22T13:13:57;20.70;45.30
38333;DHT22;25748;46.670;14.272;2024-03-22T13:16:23;20.70;44.80
38333;DHT22;25748;46.670;14.272;2024-03-22T13:18:48;20.70;44.50
38333;DHT22;25748;46.670;14.272;2024-03-22T13:21:14;20.70;44.70
38333;DHT22;25748;46.670;14.272;2024-03-22T13:23:39;20.70;44.60
38333;DHT22;25748;46.670;14.272;2024-03-22T13:26:05;20.70;44.50
38333;DHT22;25748;46.670;14.272;2024-03-22T13:28:32;20.70;44.90
38333;DHT22;25748;46.670;14.272;2024-03-22T13:31:04;20.70;44.50
38333;DHT22;25748;46.670;14.272;2024-03-22T13:33:36;20.60;43.90
38333;DHT22;25748;46.670;14.272;2024-03-22T13:36:02;20.70;43.70
38333;DHT22;25748;46.670;14.272;2024-03-22T13:38:27;20.60;43.60
38333;DHT22;25748;46.670;14.272;2024-03-22T13:40:57;20.60;44.10
38333;DHT22;25748;46.670;14.272;2024-03-22T13:43:25;20.60;44.10
38333;DHT22;25748;46.670;14.272;2024-03-22T13:45:52;20.60;43.80
38333;DHT22;25748;46.670;14.272;2024-03-22T13:48:22;20.60;43.90
38333;DHT22;25748;46.670;14.272;2024-03-22T13:50:54;20.60;44.40
38333;DHT22;25748;46.670;14.272;2024-03-22T13:53:20;20.60;43.90
38333;DHT22;25748;46.670;14.272;2024-03-22T13:55:49;20.60;41.90
38333;DHT22;25748;46.670;14.272;2024-03-22T13:58:15;20.60;43.30
38333;DHT22;25748;46.670;14.272;2024-03-22T14:00:41;20.60;43.80
38333;DHT22;25748;46.670;14.272;2024-03-22T14:03:07;20.60;44.00
38333;DHT22;25748;46.670;14.272;2024-03-22T14:05:33;20.60;42.90
38333;DHT22;25748;46.670;14.272;2024-03-22T14:07:59;20.60;42.50
38333;DHT22;25748;46.670;14.272;2024-03-22T14:10:25;20.70;42.70
38333;DHT22;25748;46.670;14.272;2024-03-22T14:12:53;20.60;41.30
38333;DHT22;25748;46.670;14.272;2024-03-22T14:15:19;20.50;42.00
38333;DHT22;25748;46.670;14.272;2024-03-22T14:17:45;20.60;42.20
38333;DHT22;25748;46.670;14.272;2024-03-22T14:20:11;20.60;41.40
38333;DHT22;25748;46.670;14.272;2024-03-22T14:22:42;20.60;41.60
38333;DHT22;25748;46.670;14.272;2024-03-22T14:25:08;20.60;40.90
38333;DHT22;25748;46.670;14.272;2024-03-22T14:27:35;20.60;40.00
38333;DHT22;25748;46.670;14.272;2024-03-22T14:30:02;20.60;40.40
38333;DHT22;25748;46.670;14.272;2024-03-22T14:32:31;20.60;40.60
38333;DHT22;25748;46.670;14.272;2024-03-22T14:34:57;20.60;40.70
38333;DHT22;25748;46.670;14.272;2024-03-22T14:37:23;20.60;40.40
38333;DHT22;25748;46.670;14.272;2024-03-22T14:39:49;20.60;40.10
38333;DHT22;25748;46.670;14.272;2024-03-22T14:42:14;20.50;38.80
38333;DHT22;25748;46.670;14.272;2024-03-22T14:44:40;20.30;39.00
38333;DHT22;25748;46.670;14.272;2024-03-22T14:47:06;20.40;40.00
38333;DHT22;25748;46.670;14.272;2024-03-22T14:49:31;20.40;39.80
38333;DHT22;25748;46.670;14.272;2024-03-22T14:51:57;20.40;40.10
38333;DHT22;25748;46.670;14.272;2024-03-22T14:54:23;20.40;39.80
38333;DHT22;25748;46.670;14.272;2024-03-22T14:56:48;20.40;39.80
38333;DHT22;25748;46.670;14.272;2024-03-22T14:59:14;20.50;39.70
38333;DHT22;25748;46.670;14.272;2024-03-22T15:01:40;20.50;39.40
38333;DHT22;25748;46.670;14.272;2024-03-22T15:04:06;20.50;39.80
38333;DHT22;25748;46.670;14.272;2024-03-22T15:06:32;20.50;39.40
38333;DHT22;25748;46.670;14.272;2024-03-22T15:08:57;20.40;39.60
38333;DHT22;25748;46.670;14.272;2024-03-22T15:11:24;20.40;39.80
38333;DHT22;25748;46.670;14.272;2024-03-22T15:13:50;20.30;40.30
38333;DHT22;25748;46.670;14.272;2024-03-22T15:16:15;20.20;40.30
38333;DHT22;25748;46.670;14.272;2024-03-22T15:18:41;20.20;40.40